nws-alerts: Checking more than four warning/county codes can delay the loading of your pages. You should use a cron job to get the data.

Nearby METAR Reports

 

KFCI - Richmond/Chester, Virginia, USA
Distance from station: ESE 7mi, 12km
Updated: Thu, 21-Feb-2019 2:56pm EST
Few Clouds
Few Clouds
 Wind from W
Wind: W 3 mph , 6 km/h
Temperature: 57°F , 14°C
Dew Point: 48°F , 9°C
Humidity: 72%
Barometer: 30.03 inHg , 1016.9 hPa
Clouds: Few Clouds
Visibility: 10 miles , 16 km
Cloud details: Few Clouds 6500 ft
2019/02/21 19:56 KFCI 211956Z AUTO 28003KT 10SM FEW065 14/09 A3003 RMK AO2 SLP188 T01390094
KPTB - Petersburg, Virginia, USA
Distance from station: SSE 19mi, 31km
Updated: Thu, 21-Feb-2019 2:55pm EST
Partly cloudy
Partly cloudy
 Wind from WSW
Wind: WSW 3 mph , 6 km/h
Temperature: 57°F , 14°C
Dew Point: 48°F , 9°C
Humidity: 72%
Barometer: 30.04 inHg , 1017.3 hPa
Clouds: Partly cloudy
Visibility: 10 miles , 16 km
Cloud details: Partly cloudy 6000 ft
2019/02/21 19:55 KPTB 211955Z AUTO 24003KT 10SM SCT060 14/09 A3004 RMK AO2 T01440093
 
KRIC - Richmond, Virginia, USA
Distance from station: ENE 19mi, 31km
Updated: Thu, 21-Feb-2019 2:54pm EST
Mostly cloudy
Mostly cloudy
 Wind from calm
Wind: Calm
Temperature: 55°F , 13°C
Dew Point: 46°F , 8°C
Humidity: 72%
Barometer: 30.03 inHg , 1016.9 hPa
Clouds: Mostly cloudy
Visibility: 10 miles , 16 km
Cloud details: Partly cloudy 6500 ft
Mostly cloudy 20000 ft
2019/02/21 19:54 KRIC 211954Z 00000KT 10SM SCT065 BKN200 13/08 A3003 RMK AO2 SLP173 T01280083
KOFP - Richmond/Hanover, Virginia, USA
Distance from station: NNE 22mi, 36km
Updated: Thu, 21-Feb-2019 2:54pm EST
Clear
Clear
 Wind from S
Wind: S 3 mph , 6 km/h
Temperature: 57°F , 14°C
Dew Point: 46°F , 8°C
Humidity: 67%
Barometer: 30.04 inHg , 1017.3 hPa
Clouds: Clear
Visibility: 10 miles , 16 km
2019/02/21 19:54 KOFP 211954Z AUTO 19003KT 10SM CLR 14/08 A3004 RMK AO2 SLP171 T01390078
 
KW96 - Quinton, Virginia, USA
Distance from station: E 28mi, 46km
Updated: Thu, 21-Feb-2019 2:55pm EST
Partly cloudy
Partly cloudy
 Wind from calm
Wind: Calm
Temperature: 54°F , 12°C
Dew Point: 48°F , 9°C
Humidity: 82%
Barometer: 30.03 inHg , 1016.9 hPa
Clouds: Partly cloudy
Visibility: 10 miles , 16 km
Cloud details: Partly cloudy 6000 ft
2019/02/21 19:55 KW96 211955Z AUTO 00000KT 10SM SCT060 12/09 A3003 RMK AO1 T01210088
KBKT - Blackstone Army, Virginia, USA
Distance from station: SW 30mi, 48km
Updated: Thu, 21-Feb-2019 2:55pm EST
Clear
Clear
 Wind from SW
Wind: SW 3 mph , 6 km/h
Temperature: 59°F , 15°C
Dew Point: 54°F , 12°C
Humidity: 82%
Barometer: 30.03 inHg , 1016.9 hPa
Clouds: Clear
Visibility: 10 miles , 16 km
2019/02/21 19:55 KBKT 211955Z AUTO 22003KT 10SM CLR 15/12 A3003 RMK AO1 T01510116
 
KW81 - Crewe, Virginia, USA
Distance from station: SW 30mi, 49km
Updated: Thu, 21-Feb-2019 2:55pm EST
Clear
Clear
 Wind from calm
Wind: Calm
Temperature: 61°F , 16°C
Dew Point: 50°F , 10°C
Humidity: 68%
Barometer: 30.02 inHg , 1016.6 hPa
Clouds: Clear
Visibility: 10 miles , 16 km
2019/02/21 19:55 KW81 211955Z AUTO 00000KT 10SM CLR 16/10 A3002 RMK AO1 T01600098
K7W4 - Bumpass, Virginia, USA
Distance from station: N 38mi, 61km
Updated: Thu, 21-Feb-2019 2:55pm EST
Clear
Clear
 Wind from calm
Wind: Calm
Temperature: 59°F , 15°C
Dew Point: 48°F , 9°C
Humidity: 68%
Barometer: 30.02 inHg , 1016.6 hPa
Clouds: Clear
Visibility: 10 miles , 16 km
2019/02/21 19:55 K7W4 211955Z AUTO 00000KT 10SM CLR 15/09 A3002 RMK AO1 T01500086
 
KFVX - Farmville, Virginia, USA
Distance from station: W 43mi, 69km
Updated: Thu, 21-Feb-2019 2:55pm EST
Clear
Clear
 Wind from calm
Wind: Calm
Temperature: 61°F , 16°C
Dew Point: 52°F , 11°C
Humidity: 72%
Barometer: 30.02 inHg , 1016.6 hPa
Clouds: Clear
Visibility: 10 miles , 16 km
2019/02/21 19:55 KFVX 211955Z AUTO 00000KT 10SM CLR 16/11 A3002 RMK AO2 T01560108
KW31 - Kenbridge, Virginia, USA
Distance from station: SW 43mi, 70km
Updated: Thu, 21-Feb-2019 2:55pm EST
Clear
Clear
 Wind from calm
Wind: Calm
Temperature: 57°F , 14°C
Dew Point: 52°F , 11°C
Humidity: 82%
Barometer: 30.03 inHg , 1016.9 hPa
Clouds: Clear
Visibility: 10 miles , 16 km
2019/02/21 19:55 KW31 211955Z AUTO 00000KT 10SM CLR 14/11 A3003 RMK AO1 T01440110
 
KLKU - Louisa, Virginia, USA
Distance from station: NNW 44mi, 72km
Updated: Thu, 21-Feb-2019 2:55pm EST
Clear
Clear
 Wind from calm
Wind: Calm
Temperature: 59°F , 15°C
Dew Point: 48°F , 9°C
Humidity: 68%
Barometer: 30.05 inHg , 1017.6 hPa
Clouds: Clear
Visibility: 10 miles , 16 km
2019/02/21 19:55 KLKU 211955Z AUTO 00000KT 10SM CLR 15/09 A3005 RMK AO2 T01550091
KLVL - Lawrenceville, Virginia, USA
Distance from station: S 46mi, 75km
Updated: Thu, 21-Feb-2019 2:50pm EST
Clear
Clear
 Wind from NW
Wind: NW 3 mph , 6 km/h
Temperature: 59°F , 15°C
Dew Point: 52°F , 11°C
Humidity: 77%
Barometer: 30.04 inHg , 1017.3 hPa
Clouds: Clear
Visibility: 10 miles , 16 km
2019/02/21 19:50 KLVL 211950Z AUTO 31003KT 10SM CLR 15/11 A3004 RMK AO1 T01490114
 
KAKQ - Norfolk/Wakefld, Virginia, USA
Distance from station: SE 47mi, 75km
Updated: Thu, 21-Feb-2019 2:54pm EST
Mostly cloudy
Mostly cloudy
 Wind from calm
Wind: Calm
Temperature: 54°F , 12°C
Dew Point: 50°F , 10°C
Humidity: 88%
Barometer: 30.04 inHg , 1017.3 hPa
Clouds: Mostly cloudy
Visibility: 10 miles , 16 km
Cloud details: Few Clouds 800 ft
Mostly cloudy 4900 ft
2019/02/21 19:54 KAKQ 211954Z AUTO 00000KT 10SM FEW008 BKN049 12/10 A3004 RMK AO2 SLP174 T01220100
KFYJ - West Point, Virginia, USA
Distance from station: E 48mi, 78km
Updated: Thu, 21-Feb-2019 2:55pm EST
Mostly cloudy
Mostly cloudy
 Wind from NW
Wind: NW 3 mph , 6 km/h
Temperature: 52°F , 11°C
Dew Point: 48°F , 9°C
Humidity: 88%
Barometer: 30.06 inHg , 1017.9 hPa
Clouds: Mostly cloudy
Visibility: 10 miles , 16 km
Cloud details: Mostly cloudy 6000 ft
2019/02/21 19:55 KFYJ 211955Z AUTO 32003KT 10SM BKN060 11/09 A3006 RMK AO1 T01130087
 
KXSA - Tappahannock, Virginia, USA
Distance from station: NE 51mi, 82km
Updated: Thu, 21-Feb-2019 2:55pm EST
Clear
Clear
 Wind from calm
Wind: Calm
Temperature: 52°F , 11°C
Dew Point: 46°F , 8°C
Humidity: 82%
Barometer: 30.05 inHg , 1017.6 hPa
Clouds: Clear
Visibility: 10 miles , 16 km
2019/02/21 19:55 KXSA 211955Z AUTO 00000KT 10SM CLR 11/08 A3005 RMK AO2 T01110075
KEMV - Emporia, Virginia, USA
Distance from station: S 52mi, 84km
Updated: Thu, 21-Feb-2019 3:02pm EST
Clear
Clear
 Wind from W
Wind: W 3 mph , 6 km/h
Temperature: 55°F , 13°C
Dew Point: 52°F , 11°C
Humidity: 88%
Barometer: 30.06 inHg , 1017.9 hPa
Clouds: Clear
Visibility: 10 miles , 16 km
2019/02/21 20:02 KEMV 212002Z AUTO 27003KT 10SM CLR 13/11 A3006 RMK AO2 LTG DSNT E
 
KJGG - Williamsburg, Virginia, USA
Distance from station: ESE 53mi, 85km
Updated: Thu, 21-Feb-2019 2:55pm EST
Partly cloudy
Partly cloudy
 Wind from calm
Wind: Calm
Temperature: 57°F , 14°C
Dew Point: 52°F , 11°C
Humidity: 82%
Barometer: 30.04 inHg , 1017.3 hPa
Clouds: Partly cloudy
Visibility: 10 miles , 16 km
Cloud details: Partly cloudy 5000 ft
2019/02/21 19:55 KJGG 211955Z AUTO 00000KT 10SM SCT050 14/11 A3004 RMK AO1
KAVC - South Hill/Meckl, Virginia, USA
Distance from station: SSW 56mi, 90km
Updated: Thu, 21-Feb-2019 2:55pm EST
Clear
Clear
 Wind from SW
Wind: SW 3 mph , 6 km/h
Temperature: 57°F , 14°C
Dew Point: 54°F , 12°C
Humidity: 88%
Barometer: 30.09 inHg , 1019 hPa
Clouds: Clear
Visibility: 10 miles , 16 km
2019/02/21 19:55 KAVC 211955Z AUTO 22003KT 10SM CLR 14/12 A3009 RMK AO2 T01380124
 
KGVE - Gordonsville, Virginia, USA
Distance from station: NNW 58mi, 93km
Updated: Thu, 21-Feb-2019 2:55pm EST
Clear
Clear
 Wind from calm
Wind: Calm
Temperature: 57°F , 14°C
Dew Point: 50°F , 10°C
Humidity: 77%
Barometer: 30.01 inHg , 1016.3 hPa
Clouds: Clear
Visibility: 10 miles , 16 km
2019/02/21 19:55 KGVE 211955Z AUTO 00000KT 10SM CLR 14/10 A3001 RMK AO1 T01440095
KEZF - Fredericksb/Shan, Virginia, USA
Distance from station: N 59mi, 95km
Updated: Thu, 21-Feb-2019 2:55pm EST
Clear
Clear
 Wind from calm
Wind: Calm
Temperature: 54°F , 12°C
Dew Point: 46°F , 8°C
Humidity: 77%
Barometer: 30.03 inHg , 1016.9 hPa
Clouds: Clear
Visibility: 10 miles , 16 km
2019/02/21 19:55 KEZF 211955Z AUTO 00000KT 10SM CLR 12/08 A3003 RMK AO2 T01210078